Arnold Palmer Regional Airport
KLBE : now visible

Airfield :











YOU CAN JOIN US ON...

 
LOGIN :

Register | Disclaimer

   EN    FR    IT 

 









Legend :    VFR   Marginal VFR   IFR   Intensive IFR   Very Intensive IFR
Visi :
Ceiling :
>= 8 km
>= 3000ft
5 to 8 km
1000 to 3000 ft
1500m to 5 km
500 to 1000 ft
800 to 1500m
200 to 500 ft
< 800m
< 200 ft
Symbols :   Thunderstorms  Fog  Heavy snow  Heavy precipitations  Wind > 20 kt






- Airport Elevation : 1199 ft
- IATA code : LBE


KLBE - Arnold Palmer Regional

CURRENT METAR :
  • 231247Z 22006KT 15SM CLR 08/02 A3011

EXPIRED METARs :
  • 231147Z 00000KT 15SM CLR 05/02 A3011
  • 231047Z 00000KT 15SM CLR 03/M00 A3011
  • 231035Z AUTO 00000KT 10SM CLR 02/M00 A3011 RMK AO2
  • 231015Z AUTO 00000KT 10SM CLR 02/M00 A3011 RMK AO2
  • 230955Z AUTO 00000KT 10SM CLR 03/M00 A3010 RMK AO2
  • 230935Z AUTO 00000KT 10SM CLR 03/M01 A3010 RMK AO2
  • 230855Z AUTO 00000KT 10SM CLR 03/M00 A3010 RMK AO2
  • 230835Z AUTO 00000KT 10SM CLR 03/M00 A3010 RMK AO2

TAF KLBE
Valid from the 23 at 12:00 until the 24 at 12:00 UTC


231120Z 2312/2412 VRB04KT P6SM SKC
FM231500 22012G22KT P6SM SKC
FM232300 22010KT P6SM BKN120
FM240300 24006KT 6SM -RA OVC050
FM240700 23010G20KT 6SM -RA OVC015
KZOB FIR / North America



MET'MAP, your aeronautical weather chart ! - Copyright ORBIFLY December 2007 - Disclaimer

ORBIFLY MET'MAP TEAM :

Programming & Development : Alexandra Zaïnal
Original concept : Baudouin d'Aumeries
Technical & hardware support : Manuel Goepfert
Assistance : Marc-Olivier Méhu




SOURCES & CREDITS :

   NOAA       Earth
Advisory